createdAt,value
2017-09-26T00:00:06.009Z,11.88
2017-09-26T00:01:05.764Z,11.96
2017-09-26T00:02:00.830Z,12.01
2017-09-26T00:02:54.849Z,12.08
2017-09-26T00:03:49.922Z,12.20
2017-09-26T00:04:51.154Z,12.25
2017-09-26T00:05:44.968Z,12.26
2017-09-26T00:06:44.969Z,12.24
2017-09-26T00:07:39.992Z,12.21
2017-09-26T00:08:35.077Z,12.20
2017-09-26T00:09:41.135Z,12.24
2017-09-26T00:10:41.092Z,12.21
2017-09-26T00:11:41.214Z,12.17
2017-09-26T00:12:35.170Z,12.16
2017-09-26T00:13:35.229Z,12.16
2017-09-26T00:14:35.343Z,12.16
2017-09-26T00:15:30.256Z,12.22
2017-09-26T00:16:18.270Z,12.26
2017-09-26T00:17:18.453Z,12.30
2017-09-26T00:18:12.378Z,12.32
2017-09-26T00:19:12.382Z,12.30
2017-09-26T00:20:06.431Z,12.28
2017-09-26T00:21:01.476Z,12.34
2017-09-26T00:21:50.501Z,12.40
2017-09-26T00:22:44.570Z,12.40
2017-09-26T00:23:44.552Z,12.44
2017-09-26T00:24:32.602Z,12.42
2017-09-26T00:25:21.687Z,12.41
2017-09-26T00:26:09.705Z,12.44
2017-09-26T00:26:57.748Z,12.44
2017-09-26T00:27:52.099Z,12.50
2017-09-26T00:28:40.960Z,12.52
2017-09-26T00:29:29.881Z,12.54
2017-09-26T00:30:18.849Z,12.60
2017-09-26T00:31:06.951Z,12.60
2017-09-26T00:31:55.265Z,12.62
2017-09-26T00:32:48.990Z,12.63
2017-09-26T00:33:49.071Z,12.66
2017-09-26T00:34:49.076Z,12.71
2017-09-26T00:35:37.117Z,12.74
2017-09-26T00:36:37.125Z,12.73
2017-09-26T00:37:32.174Z,12.75
2017-09-26T00:38:20.197Z,12.74
2017-09-26T00:39:09.278Z,12.70
2017-09-26T00:39:57.594Z,12.72
2017-09-26T00:40:46.362Z,12.70
2017-09-26T00:41:46.369Z,12.70
2017-09-26T00:42:35.387Z,12.66
2017-09-26T00:43:23.460Z,12.67
2017-09-26T00:44:11.534Z,12.68
2017-09-26T00:44:59.545Z,12.66
2017-09-26T00:45:48.561Z,12.68
2017-09-26T00:46:36.595Z,12.70
2017-09-26T00:47:24.672Z,12.68
2017-09-26T00:48:13.684Z,12.69
2017-09-26T00:49:01.756Z,12.71
2017-09-26T00:49:50.782Z,12.72
2017-09-26T00:50:44.803Z,12.75
2017-09-26T00:51:38.866Z,12.75
2017-09-26T00:52:27.906Z,12.75
2017-09-26T00:53:15.940Z,12.75
2017-09-26T00:54:04.965Z,12.72
2017-09-26T00:54:53.294Z,12.70
2017-09-26T00:55:41.028Z,12.74
2017-09-26T00:56:29.119Z,12.76
2017-09-26T00:57:18.102Z,12.74
2017-09-26T00:58:06.165Z,12.75
2017-09-26T00:59:00.445Z,12.81
2017-09-26T00:59:49.260Z,12.80
2017-09-26T01:00:38.429Z,12.82
2017-09-26T01:01:32.340Z,12.80
2017-09-26T01:02:21.365Z,12.79
2017-09-26T01:03:21.383Z,12.78
2017-09-26T01:04:15.440Z,12.79
2017-09-26T01:05:03.470Z,12.79
2017-09-26T01:06:03.610Z,12.81
2017-09-26T01:06:52.543Z,12.80
2017-09-26T01:07:46.578Z,12.81
2017-09-26T01:08:35.636Z,12.82
2017-09-26T01:09:30.669Z,12.84
2017-09-26T01:10:30.683Z,12.87
2017-09-26T01:11:25.760Z,12.88
2017-09-26T01:12:20.861Z,12.88
2017-09-26T01:13:20.784Z,12.86
2017-09-26T01:14:15.839Z,12.90
2017-09-26T01:15:10.858Z,12.90
2017-09-26T01:16:11.887Z,12.92
2017-09-26T01:17:12.191Z,12.93
2017-09-26T01:18:05.960Z,12.95
2017-09-26T01:18:59.982Z,12.94
2017-09-26T01:19:54.314Z,12.94
2017-09-26T01:20:54.064Z,12.94
2017-09-26T01:21:42.084Z,12.93
2017-09-26T01:22:42.161Z,12.95
2017-09-26T01:23:42.175Z,12.96
2017-09-26T01:24:36.180Z,12.92
2017-09-26T01:25:36.243Z,12.92
2017-09-26T01:26:30.261Z,12.93
2017-09-26T01:27:30.273Z,12.97
2017-09-26T01:28:24.368Z,12.98
2017-09-26T01:29:19.592Z,12.98
2017-09-26T01:30:19.618Z,12.95
2017-09-26T01:31:19.454Z,12.94
2017-09-26T01:32:13.468Z,12.91
2017-09-26T01:33:13.484Z,12.92
2017-09-26T01:34:08.640Z,12.90
2017-09-26T01:35:03.654Z,12.88
2017-09-26T01:36:09.581Z,12.91
2017-09-26T01:37:09.600Z,12.88
2017-09-26T01:38:09.665Z,12.90
2017-09-26T01:39:03.816Z,12.89
2017-09-26T01:40:03.755Z,12.84
2017-09-26T01:41:03.765Z,12.86
2017-09-26T01:41:58.778Z,12.88
2017-09-26T01:42:47.840Z,12.89
2017-09-26T01:43:41.865Z,12.90
2017-09-26T01:44:47.887Z,12.86
2017-09-26T01:45:42.962Z,12.85
2017-09-26T01:46:32.223Z,12.84
2017-09-26T01:47:31.989Z,12.80
2017-09-26T01:48:20.053Z,12.79
2017-09-26T01:49:08.119Z,12.76
2017-09-26T01:49:57.098Z,12.73
2017-09-26T01:50:51.183Z,12.69
2017-09-26T01:51:40.204Z,12.66
2017-09-26T01:52:29.270Z,12.64
2017-09-26T01:53:17.278Z,12.63
2017-09-26T01:54:06.301Z,12.60
2017-09-26T01:54:55.640Z,12.60
2017-09-26T01:55:49.390Z,12.62
2017-09-26T01:56:38.553Z,12.63
2017-09-26T01:57:32.467Z,12.62
2017-09-26T01:58:27.721Z,12.63
2017-09-26T01:59:21.653Z,12.64
2017-09-26T02:00:15.937Z,12.66
2017-09-26T02:01:09.598Z,12.72
2017-09-26T02:02:04.669Z,12.75
2017-09-26T02:02:53.677Z,12.76
2017-09-26T02:03:54.990Z,12.75
2017-09-26T02:04:56.023Z,12.76
2017-09-26T02:05:49.777Z,12.78
2017-09-26T02:06:49.824Z,12.75
2017-09-26T02:07:44.867Z,12.74
2017-09-26T02:08:39.877Z,12.71
2017-09-26T02:09:40.015Z,12.69
2017-09-26T02:10:34.960Z,12.67
2017-09-26T02:11:29.981Z,12.67
2017-09-26T02:12:30.044Z,12.65
2017-09-26T02:13:25.135Z,12.66
2017-09-26T02:14:20.147Z,12.64
2017-09-26T02:15:21.356Z,12.62
2017-09-26T02:16:21.225Z,12.62
2017-09-26T02:17:21.217Z,12.62
2017-09-26T02:18:16.267Z,12.64
2017-09-26T02:19:10.256Z,12.66
2017-09-26T02:20:10.370Z,12.66
2017-09-26T02:21:05.342Z,12.72
2017-09-26T02:22:11.598Z,12.72
2017-09-26T02:23:06.371Z,12.69
2017-09-26T02:24:00.433Z,12.74
2017-09-26T02:24:48.742Z,12.72
2017-09-26T02:25:36.478Z,12.74
2017-09-26T02:26:25.588Z,12.72
2017-09-26T02:27:13.589Z,12.71
2017-09-26T02:28:02.588Z,12.74
2017-09-26T02:28:56.669Z,12.73
2017-09-26T02:29:56.977Z,12.74
2017-09-26T02:30:57.722Z,12.76
2017-09-26T02:31:57.764Z,12.77
2017-09-26T02:32:52.808Z,12.78
2017-09-26T02:33:52.844Z,12.78
2017-09-26T02:34:47.059Z,12.76
2017-09-26T02:35:40.920Z,12.77
2017-09-26T02:36:34.952Z,12.78
2017-09-26T02:37:34.953Z,12.75
2017-09-26T02:38:28.976Z,12.70
2017-09-26T02:39:29.094Z,12.70
2017-09-26T02:40:29.080Z,12.66
2017-09-26T02:41:29.414Z,12.68
2017-09-26T02:42:23.097Z,12.66
2017-09-26T02:43:24.199Z,12.65
2017-09-26T02:44:24.188Z,12.70
2017-09-26T02:45:24.196Z,12.72
2017-09-26T02:46:18.268Z,12.72
2017-09-26T02:47:19.491Z,12.72
2017-09-26T02:48:19.339Z,12.71
2017-09-26T02:49:14.363Z,12.68
2017-09-26T02:50:08.426Z,12.65
2017-09-26T02:50:57.460Z,12.69
2017-09-26T02:51:51.752Z,12.72
2017-09-26T02:52:51.656Z,12.74
2017-09-26T02:53:45.533Z,12.76
2017-09-26T02:54:39.590Z,12.70
2017-09-26T02:55:33.583Z,12.73
2017-09-26T02:56:33.660Z,12.73
2017-09-26T02:57:33.673Z,12.72
2017-09-26T02:58:27.756Z,12.72
2017-09-26T02:59:21.789Z,12.71
2017-09-26T03:00:16.071Z,12.69
2017-09-26T03:01:04.834Z,12.71
2017-09-26T03:02:04.880Z,12.70
2017-09-26T03:02:59.882Z,12.73
2017-09-26T03:03:47.971Z,12.74
2017-09-26T03:04:42.156Z,12.73
2017-09-26T03:05:35.999Z,12.76
2017-09-26T03:06:36.050Z,12.76
2017-09-26T03:07:36.124Z,12.74
2017-09-26T03:08:25.084Z,12.73
2017-09-26T03:09:14.172Z,12.72
2017-09-26T03:10:09.174Z,12.71
2017-09-26T03:11:09.236Z,12.72
2017-09-26T03:11:58.267Z,12.72
2017-09-26T03:12:52.285Z,12.74
2017-09-26T03:13:52.290Z,12.74
2017-09-26T03:14:46.375Z,12.71
2017-09-26T03:15:46.380Z,12.74
2017-09-26T03:16:40.450Z,12.73
2017-09-26T03:17:34.461Z,12.73
2017-09-26T03:18:28.476Z,12.72
2017-09-26T03:19:17.552Z,12.72
2017-09-26T03:20:12.583Z,12.70
2017-09-26T03:21:00.629Z,12.71
2017-09-26T03:21:48.668Z,12.74
2017-09-26T03:22:43.689Z,12.71
2017-09-26T03:23:37.740Z,12.71
2017-09-26T03:24:32.042Z,12.70
2017-09-26T03:25:26.802Z,12.69
2017-09-26T03:26:20.864Z,12.72
2017-09-26T03:27:20.866Z,12.70
2017-09-26T03:28:09.883Z,12.70
2017-09-26T03:29:03.959Z,12.68
2017-09-26T03:29:58.270Z,12.67
2017-09-26T03:30:47.065Z,12.68
2017-09-26T03:31:35.065Z,12.68
2017-09-26T03:32:29.085Z,12.66
2017-09-26T03:33:29.099Z,12.66
2017-09-26T03:34:18.167Z,12.65
2017-09-26T03:35:06.235Z,12.62
2017-09-26T03:35:54.272Z,12.61
2017-09-26T03:36:42.278Z,12.61
2017-09-26T03:37:31.353Z,12.59
2017-09-26T03:38:26.375Z,12.60
2017-09-26T03:39:27.382Z,12.60
2017-09-26T03:40:21.870Z,12.57
2017-09-26T03:41:21.477Z,12.60
2017-09-26T03:42:15.490Z,12.59
2017-09-26T03:43:15.521Z,12.58
2017-09-26T03:44:09.568Z,12.57
2017-09-26T03:45:04.585Z,12.54
2017-09-26T03:45:59.652Z,12.56
2017-09-26T03:46:53.695Z,12.56
2017-09-26T03:47:42.747Z,12.55
2017-09-26T03:48:30.779Z,12.52
2017-09-26T03:49:24.795Z,12.53
2017-09-26T03:50:25.788Z,12.49
2017-09-26T03:51:19.874Z,12.49
2017-09-26T03:52:14.945Z,12.47
2017-09-26T03:53:14.981Z,12.48
2017-09-26T03:54:14.960Z,12.48
2017-09-26T03:55:09.985Z,12.44
2017-09-26T03:55:59.056Z,12.45
2017-09-26T03:56:53.113Z,12.46
2017-09-26T03:57:42.151Z,12.44
2017-09-26T03:58:36.202Z,12.48
2017-09-26T03:59:36.426Z,12.45
2017-09-26T04:00:25.197Z,12.46
2017-09-26T04:01:25.256Z,12.49
2017-09-26T04:02:19.275Z,12.50
2017-09-26T04:03:19.354Z,12.49
2017-09-26T04:04:13.528Z,12.48
2017-09-26T04:05:13.372Z,12.47
2017-09-26T04:06:08.430Z,12.50
2017-09-26T04:06:56.467Z,12.46
2017-09-26T04:07:51.772Z,12.48
2017-09-26T04:08:40.541Z,12.46
2017-09-26T04:09:34.731Z,12.42
2017-09-26T04:10:28.587Z,12.42
2017-09-26T04:11:16.657Z,12.41
2017-09-26T04:12:10.685Z,12.44
2017-09-26T04:13:05.860Z,12.43
2017-09-26T04:14:05.767Z,12.42
2017-09-26T04:15:00.051Z,12.40
2017-09-26T04:15:54.935Z,12.42
2017-09-26T04:16:48.865Z,12.45
2017-09-26T04:17:48.867Z,12.45
2017-09-26T04:18:43.936Z,12.44
2017-09-26T04:19:38.054Z,12.42
2017-09-26T04:20:37.971Z,12.40
2017-09-26T04:21:33.036Z,12.38
2017-09-26T04:22:33.205Z,12.39
2017-09-26T04:23:27.078Z,12.40
2017-09-26T04:24:27.129Z,12.38
2017-09-26T04:25:22.478Z,12.37
2017-09-26T04:26:16.178Z,12.38
2017-09-26T04:27:16.205Z,12.42
2017-09-26T04:28:10.270Z,12.42
2017-09-26T04:28:59.309Z,12.40
2017-09-26T04:29:53.354Z,12.38
2017-09-26T04:30:59.374Z,12.38
2017-09-26T04:31:59.506Z,12.36
2017-09-26T04:32:54.441Z,12.37
2017-09-26T04:33:48.626Z,12.34
2017-09-26T04:34:48.485Z,12.34
2017-09-26T04:35:43.550Z,12.38
2017-09-26T04:36:38.578Z,12.38
2017-09-26T04:37:39.788Z,12.39
2017-09-26T04:38:27.650Z,12.40
2017-09-26T04:39:15.667Z,12.37
2017-09-26T04:40:16.925Z,12.38
2017-09-26T04:41:10.756Z,12.37
2017-09-26T04:42:11.118Z,12.37
2017-09-26T04:43:05.828Z,12.37
2017-09-26T04:44:00.850Z,12.37
2017-09-26T04:44:48.882Z,12.36
2017-09-26T04:45:43.936Z,12.34
2017-09-26T04:46:32.964Z,12.34
2017-09-26T04:47:27.081Z,12.34
2017-09-26T04:48:27.048Z,12.30
2017-09-26T04:49:27.060Z,12.29
2017-09-26T04:50:22.400Z,12.24
2017-09-26T04:51:16.097Z,12.25
2017-09-26T04:52:16.359Z,12.25
2017-09-26T04:53:11.468Z,12.28
2017-09-26T04:54:11.247Z,12.31
2017-09-26T04:55:00.556Z,12.30
2017-09-26T04:55:54.286Z,12.30
2017-09-26T04:56:43.354Z,12.30
2017-09-26T04:57:31.371Z,12.30
2017-09-26T04:58:20.456Z,12.29
2017-09-26T04:59:14.467Z,12.30
2017-09-26T05:00:02.487Z,12.29
2017-09-26T05:00:51.555Z,12.26
2017-09-26T05:01:45.575Z,12.30
2017-09-26T05:02:34.589Z,12.30
2017-09-26T05:03:23.676Z,12.30
2017-09-26T05:04:23.678Z,12.28
2017-09-26T05:05:12.886Z,12.30
2017-09-26T05:06:06.767Z,12.28
2017-09-26T05:07:01.793Z,12.28
2017-09-26T05:08:01.854Z,12.26
2017-09-26T05:09:01.878Z,12.26
2017-09-26T05:09:56.891Z,12.28
2017-09-26T05:10:50.956Z,12.28
2017-09-26T05:11:40.128Z,12.28
2017-09-26T05:12:35.001Z,12.29
2017-09-26T05:13:30.124Z,12.30
2017-09-26T05:14:19.239Z,12.30
2017-09-26T05:15:14.141Z,12.26
2017-09-26T05:16:14.165Z,12.28
2017-09-26T05:17:09.190Z,12.28
2017-09-26T05:18:03.250Z,12.28
2017-09-26T05:18:58.264Z,12.27
2017-09-26T05:19:52.287Z,12.28
2017-09-26T05:20:47.419Z,12.28
2017-09-26T05:21:41.365Z,12.28
2017-09-26T05:22:36.447Z,12.28
2017-09-26T05:23:25.458Z,12.26
2017-09-26T05:24:20.477Z,12.24
2017-09-26T05:25:15.537Z,12.25
2017-09-26T05:26:16.565Z,12.25
2017-09-26T05:27:16.681Z,12.23
2017-09-26T05:28:10.595Z,12.24
2017-09-26T05:29:10.659Z,12.24
2017-09-26T05:30:04.683Z,12.25
2017-09-26T05:30:53.777Z,12.25
2017-09-26T05:31:49.058Z,12.20
2017-09-26T05:32:42.779Z,12.21
2017-09-26T05:33:42.860Z,12.24
2017-09-26T05:34:37.168Z,12.19
2017-09-26T05:35:36.885Z,12.21
2017-09-26T05:36:31.961Z,12.26
2017-09-26T05:37:19.984Z,12.26
2017-09-26T05:38:20.037Z,12.27
2017-09-26T05:39:15.059Z,12.28
2017-09-26T05:40:09.071Z,12.27
2017-09-26T05:41:04.203Z,12.29
2017-09-26T05:41:59.174Z,12.26
2017-09-26T05:43:00.422Z,12.23
2017-09-26T05:44:00.207Z,12.30
2017-09-26T05:45:00.269Z,12.27
2017-09-26T05:45:54.267Z,12.28
2017-09-26T05:46:54.337Z,12.27
2017-09-26T05:47:49.699Z,12.26
2017-09-26T05:48:43.575Z,12.32
2017-09-26T05:49:43.727Z,12.26
2017-09-26T05:50:43.469Z,12.28
2017-09-26T05:51:43.481Z,12.22
2017-09-26T05:52:32.542Z,12.22
2017-09-26T05:53:27.571Z,12.25
2017-09-26T05:54:16.632Z,12.27
2017-09-26T05:55:10.661Z,12.27
2017-09-26T05:56:10.666Z,12.24
2017-09-26T05:57:04.736Z,12.25
2017-09-26T05:57:58.760Z,12.27
2017-09-26T05:58:46.842Z,12.27
2017-09-26T05:59:41.282Z,12.24
2017-09-26T06:00:35.918Z,12.26
2017-09-26T06:01:29.937Z,12.24
2017-09-26T06:02:23.957Z,12.25
2017-09-26T06:03:12.980Z,12.30
2017-09-26T06:04:13.056Z,12.28
2017-09-26T06:05:13.035Z,12.32
2017-09-26T06:06:13.069Z,12.30
2017-09-26T06:07:13.129Z,12.26
2017-09-26T06:08:19.147Z,12.25
2017-09-26T06:09:13.178Z,12.32
2017-09-26T06:10:08.186Z,12.38
2017-09-26T06:11:02.256Z,12.34
2017-09-26T06:11:51.313Z,12.34
2017-09-26T06:12:39.338Z,12.34
2017-09-26T06:13:27.363Z,12.39
2017-09-26T06:14:21.420Z,12.36
2017-09-26T06:15:21.446Z,12.34
2017-09-26T06:16:15.659Z,12.26
2017-09-26T06:17:15.505Z,12.35
2017-09-26T06:18:10.528Z,12.36
2017-09-26T06:19:04.569Z,12.34
2017-09-26T06:20:05.581Z,12.36
2017-09-26T06:21:05.727Z,12.44
2017-09-26T06:21:54.758Z,12.50
2017-09-26T06:22:54.734Z,12.48
2017-09-26T06:23:43.765Z,12.52
2017-09-26T06:24:39.094Z,12.56
2017-09-26T06:25:26.858Z,12.56
2017-09-26T06:26:26.905Z,12.61
2017-09-26T06:27:21.192Z,12.58
2017-09-26T06:28:21.112Z,12.71
2017-09-26T06:29:16.057Z,12.73
2017-09-26T06:30:10.048Z,12.67
2017-09-26T06:31:04.068Z,12.72
2017-09-26T06:32:04.089Z,12.64
2017-09-26T06:33:04.164Z,12.62
2017-09-26T06:33:52.177Z,12.58
2017-09-26T06:34:46.408Z,12.66
2017-09-26T06:35:41.276Z,12.70
2017-09-26T06:36:42.278Z,12.70
2017-09-26T06:37:31.355Z,12.70
2017-09-26T06:38:32.589Z,12.76
2017-09-26T06:39:27.384Z,12.88
2017-09-26T06:40:21.470Z,12.82
2017-09-26T06:41:09.728Z,12.90
2017-09-26T06:42:03.529Z,12.90
2017-09-26T06:42:58.611Z,12.90
2017-09-26T06:43:58.590Z,13.00
2017-09-26T06:44:47.596Z,13.02
2017-09-26T06:45:42.671Z,13.03
2017-09-26T06:46:31.736Z,12.98
2017-09-26T06:47:25.760Z,12.95
2017-09-26T06:48:31.904Z,12.96
2017-09-26T06:49:25.875Z,12.80
2017-09-26T06:50:25.876Z,12.82
2017-09-26T06:51:13.937Z,12.96
2017-09-26T06:52:08.969Z,13.02
2017-09-26T06:53:08.979Z,12.97
2017-09-26T06:54:04.023Z,12.96
2017-09-26T06:55:04.094Z,12.94
2017-09-26T06:55:59.078Z,12.95
2017-09-26T06:56:54.155Z,12.98
2017-09-26T06:57:48.176Z,12.94
2017-09-26T06:58:48.228Z,12.95
2017-09-26T06:59:43.543Z,12.98
2017-09-26T07:00:38.288Z,13.03
2017-09-26T07:01:38.343Z,12.94
2017-09-26T07:02:32.401Z,13.04
2017-09-26T07:03:33.381Z,13.16
2017-09-26T07:04:27.456Z,13.10
2017-09-26T07:05:16.480Z,13.18
2017-09-26T07:06:11.554Z,13.14
2017-09-26T07:07:06.562Z,13.12
2017-09-26T07:08:06.583Z,13.22
2017-09-26T07:09:01.593Z,13.27
2017-09-26T07:09:55.673Z,13.38
2017-09-26T07:10:50.685Z,13.42
2017-09-26T07:11:51.054Z,13.54
2017-09-26T07:12:44.778Z,13.49
2017-09-26T07:13:44.837Z,13.48
2017-09-26T07:14:33.858Z,13.42
2017-09-26T07:15:28.882Z,13.34
2017-09-26T07:16:22.955Z,13.40
2017-09-26T07:17:22.978Z,13.44
2017-09-26T07:18:16.993Z,13.52
2017-09-26T07:19:17.057Z,13.60
2017-09-26T07:20:12.111Z,13.66
2017-09-26T07:21:12.108Z,13.70
2017-09-26T07:22:07.162Z,13.70
2017-09-26T07:23:01.257Z,13.65
2017-09-26T07:23:55.258Z,13.55
2017-09-26T07:24:50.230Z,13.58
2017-09-26T07:25:45.380Z,13.70
2017-09-26T07:26:39.448Z,13.74
2017-09-26T07:27:40.392Z,13.80
2017-09-26T07:28:34.529Z,13.84
2017-09-26T07:29:28.458Z,13.86
2017-09-26T07:30:23.495Z,13.84
2017-09-26T07:31:18.525Z,13.74
2017-09-26T07:32:12.572Z,13.70
2017-09-26T07:33:07.620Z,13.51
2017-09-26T07:34:02.728Z,13.50
2017-09-26T07:35:02.688Z,13.52
2017-09-26T07:35:51.849Z,13.52
2017-09-26T07:36:46.777Z,13.48
2017-09-26T07:37:40.853Z,13.57
2017-09-26T07:38:40.864Z,13.54
2017-09-26T07:39:36.174Z,13.59
2017-09-26T07:40:35.983Z,13.60
2017-09-26T07:41:35.961Z,13.63
2017-09-26T07:42:31.229Z,13.66
2017-09-26T07:43:31.138Z,13.65
2017-09-26T07:44:26.081Z,13.54
2017-09-26T07:45:21.257Z,13.47
2017-09-26T07:46:21.706Z,13.42
2017-09-26T07:47:15.247Z,13.30
2017-09-26T07:48:16.250Z,13.23
2017-09-26T07:49:16.264Z,13.26
2017-09-26T07:50:10.328Z,13.26
2017-09-26T07:51:10.361Z,13.34
2017-09-26T07:52:04.405Z,13.40
2017-09-26T07:53:05.432Z,13.53
2017-09-26T07:54:06.457Z,13.44
2017-09-26T07:55:06.653Z,13.48
2017-09-26T07:56:06.543Z,13.50
2017-09-26T07:57:06.656Z,13.60
2017-09-26T07:58:00.717Z,13.66
2017-09-26T07:59:01.658Z,13.61
2017-09-26T07:59:55.788Z,13.53
2017-09-26T08:00:49.848Z,13.40
2017-09-26T08:01:49.999Z,13.38
2017-09-26T08:02:43.999Z,13.50
2017-09-26T08:03:45.137Z,13.46
2017-09-26T08:04:39.192Z,13.50
2017-09-26T08:05:38.947Z,13.37
2017-09-26T08:06:32.977Z,13.28
2017-09-26T08:07:32.988Z,13.14
2017-09-26T08:08:28.120Z,12.92
2017-09-26T08:09:22.088Z,12.80
2017-09-26T08:10:16.405Z,12.82
2017-09-26T08:11:11.176Z,12.81
2017-09-26T08:12:11.234Z,12.86
2017-09-26T08:13:06.276Z,12.82
2017-09-26T08:14:06.298Z,12.86
2017-09-26T08:15:00.353Z,12.86
2017-09-26T08:16:00.370Z,12.69
2017-09-26T08:16:49.438Z,12.76
2017-09-26T08:17:38.471Z,12.77
2017-09-26T08:18:32.486Z,12.74
2017-09-26T08:19:27.582Z,12.78
2017-09-26T08:20:33.575Z,12.70
2017-09-26T08:21:22.611Z,12.69
2017-09-26T08:22:16.693Z,12.55
2017-09-26T08:23:12.242Z,12.75
2017-09-26T08:24:05.854Z,12.75
2017-09-26T08:25:00.891Z,12.25
2017-09-26T08:25:55.896Z,11.97
2017-09-26T08:26:56.035Z,12.04
2017-09-26T08:27:50.171Z,11.90
2017-09-26T08:28:43.972Z,11.81
2017-09-26T08:29:39.312Z,11.68
2017-09-26T08:30:39.432Z,11.73
2017-09-26T08:31:34.080Z,11.70
2017-09-26T08:32:29.119Z,11.70
2017-09-26T08:33:30.170Z,11.88
2017-09-26T08:34:30.192Z,12.14
2017-09-26T08:35:25.248Z,11.94
2017-09-26T08:36:25.340Z,11.64
2017-09-26T08:37:20.345Z,11.64
2017-09-26T08:38:14.381Z,11.68
2017-09-26T08:39:14.443Z,11.50
2017-09-26T08:40:14.465Z,11.49
2017-09-26T08:41:20.485Z,11.70
2017-09-26T08:42:15.567Z,11.68
2017-09-26T08:43:09.568Z,11.52
2017-09-26T08:44:04.643Z,11.61
2017-09-26T08:45:05.665Z,11.74
2017-09-26T08:46:00.701Z,11.67
2017-09-26T08:46:54.858Z,11.67
2017-09-26T08:47:55.793Z,11.51
2017-09-26T08:48:49.915Z,11.47
2017-09-26T08:49:39.175Z,11.54
2017-09-26T08:50:34.057Z,11.44
2017-09-26T08:51:34.225Z,11.30
2017-09-26T08:52:29.117Z,11.24
2017-09-26T08:53:23.075Z,11.27
2017-09-26T08:54:23.073Z,11.28
2017-09-26T08:55:17.104Z,11.37
2017-09-26T08:56:17.197Z,11.35
2017-09-26T08:57:12.189Z,11.39
2017-09-26T08:58:07.261Z,11.52
2017-09-26T08:59:01.288Z,11.75
2017-09-26T08:59:55.353Z,11.80
2017-09-26T09:00:50.376Z,11.80
2017-09-26T09:01:44.550Z,11.71
2017-09-26T09:02:44.463Z,11.45
2017-09-26T09:03:38.485Z,11.78
2017-09-26T09:04:39.855Z,12.01
2017-09-26T09:05:28.673Z,12.04
2017-09-26T09:06:23.641Z,11.92
2017-09-26T09:07:23.697Z,11.86
2017-09-26T09:08:23.684Z,11.82
2017-09-26T09:09:17.868Z,11.85
2017-09-26T09:10:17.973Z,11.72
2017-09-26T09:11:11.850Z,11.66
2017-09-26T09:12:06.100Z,11.61
2017-09-26T09:13:06.147Z,11.50
2017-09-26T09:14:00.207Z,11.27
2017-09-26T09:15:00.114Z,11.21
2017-09-26T09:15:54.417Z,11.33
2017-09-26T09:16:54.145Z,11.46
2017-09-26T09:17:48.210Z,11.58
2017-09-26T09:18:49.176Z,11.83
2017-09-26T09:19:50.689Z,11.92
2017-09-26T09:20:50.325Z,12.00
2017-09-26T09:21:50.355Z,12.02
2017-09-26T09:22:44.346Z,11.96
2017-09-26T09:23:44.657Z,11.98
2017-09-26T09:24:39.755Z,12.18
2017-09-26T09:25:34.558Z,12.39
2017-09-26T09:26:28.560Z,12.56
2017-09-26T09:27:28.772Z,12.98
2017-09-26T09:28:23.643Z,13.16
2017-09-26T09:29:18.723Z,13.20
2017-09-26T09:30:12.740Z,13.49
2017-09-26T09:31:12.729Z,13.58
2017-09-26T09:32:06.867Z,13.98
2017-09-26T09:32:54.836Z,14.84
2017-09-26T09:33:44.055Z,15.55
2017-09-26T09:34:38.042Z,16.38
2017-09-26T09:35:38.142Z,17.34
2017-09-26T09:36:32.227Z,17.84
2017-09-26T09:37:27.064Z,17.84
2017-09-26T09:38:22.094Z,17.96
2017-09-26T09:39:17.140Z,17.69
2017-09-26T09:40:06.241Z,17.01
2017-09-26T09:41:00.296Z,16.96
2017-09-26T09:41:55.273Z,17.65
2017-09-26T09:42:55.331Z,18.49
2017-09-26T09:43:44.620Z,18.38
2017-09-26T09:44:33.434Z,17.70
2017-09-26T09:45:33.472Z,17.26
2017-09-26T09:46:22.513Z,16.94
2017-09-26T09:47:16.567Z,16.56
2017-09-26T09:48:22.656Z,16.55
2017-09-26T09:49:17.841Z,16.80
2017-09-26T09:50:11.919Z,16.44
2017-09-26T09:51:05.823Z,15.93
2017-09-26T09:51:55.039Z,15.31
2017-09-26T09:52:54.989Z,14.87
2017-09-26T09:53:43.881Z,15.58
2017-09-26T09:54:39.161Z,16.02
2017-09-26T09:55:33.224Z,16.02
2017-09-26T09:56:28.222Z,16.90
2017-09-26T09:57:23.345Z,17.22
2017-09-26T09:58:12.347Z,17.51
2017-09-26T09:59:07.223Z,17.90
2017-09-26T10:00:01.392Z,18.00
2017-09-26T10:00:55.430Z,18.63
2017-09-26T10:01:43.619Z,19.19
2017-09-26T10:02:43.404Z,18.96
2017-09-26T10:03:32.557Z,18.90
2017-09-26T10:04:26.719Z,18.96
2017-09-26T10:05:21.788Z,18.80
2017-09-26T10:06:15.791Z,18.60
2017-09-26T10:07:09.910Z,18.62
2017-09-26T10:07:58.911Z,18.70
2017-09-26T10:08:53.989Z,18.91
2017-09-26T10:09:42.076Z,19.00
2017-09-26T10:10:36.116Z,18.83
2017-09-26T10:11:24.144Z,18.94
2017-09-26T10:12:18.214Z,19.00
2017-09-26T10:13:07.250Z,19.17
2017-09-26T10:14:02.321Z,19.38
2017-09-26T10:15:02.396Z,19.60
2017-09-26T10:15:56.456Z,19.69
2017-09-26T10:16:56.469Z,19.92
2017-09-26T10:17:50.494Z,19.90
2017-09-26T10:18:44.497Z,20.19
2017-09-26T10:19:39.597Z,20.16
2017-09-26T10:20:33.655Z,19.87
2017-09-26T10:21:21.716Z,19.95
2017-09-26T10:22:21.796Z,20.21
2017-09-26T10:23:16.800Z,20.24
2017-09-26T10:24:11.835Z,19.78
2017-09-26T10:25:11.908Z,19.26
2017-09-26T10:26:06.847Z,19.38
2017-09-26T10:27:02.002Z,19.55
2017-09-26T10:28:03.102Z,20.07
2017-09-26T10:28:57.117Z,20.13
2017-09-26T10:29:51.338Z,20.06
2017-09-26T10:30:39.228Z,20.08
2017-09-26T10:31:34.262Z,20.38
2017-09-26T10:32:34.336Z,20.38
2017-09-26T10:33:29.582Z,20.83
2017-09-26T10:34:23.424Z,21.35
2017-09-26T10:35:18.514Z,21.32
2017-09-26T10:36:13.515Z,20.75
2017-09-26T10:37:07.611Z,20.66
2017-09-26T10:38:07.695Z,20.40
2017-09-26T10:39:02.709Z,19.97
2017-09-26T10:39:51.730Z,19.74
2017-09-26T10:40:40.822Z,19.12
2017-09-26T10:41:34.856Z,18.92
2017-09-26T10:42:34.897Z,18.72
2017-09-26T10:43:22.982Z,18.36
2017-09-26T10:44:22.946Z,18.03
2017-09-26T10:45:17.059Z,18.10
2017-09-26T10:46:17.109Z,18.68
2017-09-26T10:47:11.128Z,19.51
2017-09-26T10:48:05.256Z,20.16
2017-09-26T10:49:00.329Z,20.64
2017-09-26T10:49:54.362Z,20.72
2017-09-26T10:50:49.349Z,20.76
2017-09-26T10:51:43.449Z,21.15
2017-09-26T10:52:43.470Z,21.72
2017-09-26T10:53:37.517Z,22.13
2017-09-26T10:54:25.643Z,22.40
2017-09-26T10:55:19.585Z,22.10
2017-09-26T10:56:13.622Z,21.63
2017-09-26T10:57:07.755Z,21.56
2017-09-26T10:58:01.807Z,21.42
2017-09-26T10:58:49.856Z,21.20
2017-09-26T10:59:38.913Z,20.73
2017-09-26T11:00:32.956Z,20.15
2017-09-26T11:01:33.012Z,19.50
2017-09-26T11:02:33.167Z,18.64
2017-09-26T11:03:27.080Z,18.24
2017-09-26T11:04:21.135Z,17.90
2017-09-26T11:05:10.228Z,17.66
2017-09-26T11:06:04.275Z,17.38
2017-09-26T11:07:04.069Z,17.20
2017-09-26T11:07:58.520Z,17.37
2017-09-26T11:08:53.172Z,18.09
2017-09-26T11:09:53.415Z,19.38
2017-09-26T11:10:48.534Z,20.35
2017-09-26T11:11:42.654Z,21.22
2017-09-26T11:12:37.537Z,21.41
2017-09-26T11:13:31.585Z,21.21
2017-09-26T11:14:25.652Z,21.19
2017-09-26T11:15:20.768Z,21.27
2017-09-26T11:16:14.821Z,21.00
2017-09-26T11:17:08.863Z,21.18
2017-09-26T11:18:03.902Z,21.00
2017-09-26T11:18:52.901Z,21.06
2017-09-26T11:19:41.077Z,21.42
2017-09-26T11:20:29.200Z,21.84
2017-09-26T11:21:23.187Z,22.34
2017-09-26T11:22:17.124Z,22.39
2017-09-26T11:23:05.302Z,21.88
2017-09-26T11:23:54.221Z,21.46
2017-09-26T11:24:43.426Z,21.48
2017-09-26T11:25:32.402Z,21.81
2017-09-26T11:26:26.525Z,22.12
2017-09-26T11:27:21.534Z,22.04
2017-09-26T11:28:16.588Z,22.24
2017-09-26T11:29:11.601Z,22.54
2017-09-26T11:30:05.690Z,22.93
2017-09-26T11:31:05.731Z,22.90
2017-09-26T11:31:59.805Z,22.78
2017-09-26T11:32:54.682Z,22.95
2017-09-26T11:33:54.667Z,23.15
2017-09-26T11:34:49.956Z,22.87
2017-09-26T11:35:44.011Z,22.31
2017-09-26T11:36:37.902Z,21.98
2017-09-26T11:37:32.023Z,22.08
2017-09-26T11:38:27.150Z,22.66
2017-09-26T11:39:22.179Z,23.15
2017-09-26T11:40:16.094Z,23.12
2017-09-26T11:41:05.073Z,23.15
2017-09-26T11:42:00.399Z,23.34
2017-09-26T11:43:00.466Z,23.34
2017-09-26T11:43:55.213Z,22.38
2017-09-26T11:44:44.580Z,22.36
2017-09-26T11:45:33.544Z,22.58
2017-09-26T11:46:33.564Z,22.40
2017-09-26T11:47:27.454Z,22.64